createdAt,value
2022-11-02T00:01:15.729Z,1.23
2022-11-02T00:06:17.589Z,1.80
2022-11-02T00:11:19.259Z,1.33
2022-11-02T00:16:23.023Z,1.67
2022-11-02T00:21:27.109Z,1.65
2022-11-02T00:26:29.263Z,1.35
2022-11-02T00:31:30.950Z,0.80
2022-11-02T00:36:33.705Z,1.00
2022-11-02T00:41:35.287Z,0.90
2022-11-02T00:46:37.412Z,1.20
2022-11-02T00:51:39.187Z,0.80
2022-11-02T00:56:40.826Z,0.63
2022-11-02T01:01:47.445Z,0.80
2022-11-02T01:06:49.301Z,1.00
2022-11-02T01:11:51.349Z,1.23
2022-11-02T01:16:53.064Z,0.95
2022-11-02T01:21:54.760Z,1.08
2022-11-02T01:26:56.367Z,0.93
2022-11-02T01:31:58.047Z,1.25
2022-11-02T01:36:59.829Z,1.08
2022-11-02T01:42:01.728Z,1.30
2022-11-02T01:47:16.054Z,1.15
2022-11-02T01:52:24.260Z,1.40
2022-11-02T01:57:28.323Z,1.35
2022-11-02T02:02:30.188Z,1.83
2022-11-02T02:07:33.991Z,1.58
2022-11-02T02:12:39.755Z,2.03
2022-11-02T02:17:45.078Z,1.73
2022-11-02T02:23:18.841Z,1.50
2022-11-02T02:28:53.489Z,1.42
2022-11-02T02:34:03.938Z,1.65
2022-11-02T02:39:14.202Z,2.25
2022-11-02T02:44:22.450Z,1.75
2022-11-02T02:49:38.066Z,1.70
2022-11-02T02:54:43.796Z,1.60
2022-11-02T02:59:48.831Z,1.98
2022-11-02T03:04:53.427Z,1.80
2022-11-02T03:10:11.292Z,1.77
2022-11-02T03:15:19.191Z,1.98
2022-11-02T03:20:33.684Z,1.27
2022-11-02T03:25:56.857Z,2.25
2022-11-02T03:31:08.514Z,1.95
2022-11-02T03:36:19.636Z,1.83
2022-11-02T03:41:24.701Z,2.58
2022-11-02T03:46:27.678Z,2.22
2022-11-02T03:51:31.210Z,1.70
2022-11-02T03:56:41.830Z,3.13
2022-11-02T04:01:47.473Z,1.92
2022-11-02T04:06:49.670Z,2.13
2022-11-02T04:12:31.379Z,2.08
2022-11-02T04:17:51.651Z,2.63
2022-11-02T04:23:12.833Z,1.67
2022-11-02T04:28:15.881Z,1.95
2022-11-02T04:33:35.249Z,3.50
2022-11-02T04:38:50.056Z,2.10
2022-11-02T04:43:59.236Z,1.60
2022-11-02T04:49:01.490Z,2.35
2022-11-02T04:54:06.389Z,1.95
2022-11-02T04:59:08.621Z,1.23
2022-11-02T05:04:12.342Z,1.10
2022-11-02T05:09:14.769Z,2.28
2022-11-02T05:14:19.984Z,1.75
2022-11-02T05:19:22.073Z,2.30
2022-11-02T05:24:24.193Z,1.20
2022-11-02T05:29:26.779Z,1.20
2022-11-02T05:34:29.047Z,1.73
2022-11-02T05:39:30.904Z,0.80
2022-11-02T05:44:33.440Z,1.67
2022-11-02T05:49:35.473Z,1.65
2022-11-02T05:54:37.213Z,0.90
2022-11-02T05:59:38.862Z,1.08
2022-11-02T06:04:40.595Z,1.63
2022-11-02T06:09:42.379Z,1.65
2022-11-02T06:14:44.103Z,2.22
2022-11-02T06:19:45.875Z,1.52
2022-11-02T06:24:47.544Z,1.42
2022-11-02T06:29:49.182Z,1.10
2022-11-02T06:34:50.850Z,1.50
2022-11-02T06:39:52.565Z,1.23
2022-11-02T06:44:54.285Z,1.27
2022-11-02T06:49:56.208Z,1.73
2022-11-02T06:54:57.849Z,1.60
2022-11-02T07:00:04.763Z,1.70
2022-11-02T07:05:06.921Z,2.30
2022-11-02T07:10:10.761Z,1.55
2022-11-02T07:15:13.441Z,0.90
2022-11-02T07:20:15.423Z,1.67
2022-11-02T07:25:17.261Z,2.33
2022-11-02T07:30:22.226Z,1.73
2022-11-02T07:35:24.617Z,1.52
2022-11-02T07:40:27.187Z,2.17
2022-11-02T07:45:31.420Z,1.70
2022-11-02T07:50:33.008Z,2.13
2022-11-02T07:55:34.823Z,1.42
2022-11-02T08:00:38.544Z,1.45
2022-11-02T08:05:42.893Z,1.55
2022-11-02T08:10:48.723Z,1.90
2022-11-02T08:15:52.027Z,1.45
2022-11-02T08:20:56.619Z,1.77
2022-11-02T08:25:59.390Z,1.33
2022-11-02T08:31:01.156Z,1.25
2022-11-02T08:36:04.813Z,2.00
2022-11-02T08:41:06.569Z,1.40
2022-11-02T08:46:14.909Z,1.75
2022-11-02T08:51:18.177Z,1.50
2022-11-02T08:56:20.513Z,1.42
2022-11-02T09:01:27.283Z,1.60
2022-11-02T09:06:29.126Z,1.10
2022-11-02T09:11:30.943Z,1.48
2022-11-02T09:16:34.410Z,1.90
2022-11-02T09:21:39.160Z,1.90
2022-11-02T09:26:40.944Z,1.40
2022-11-02T09:31:42.702Z,1.23
2022-11-02T09:36:44.375Z,1.20
2022-11-02T09:42:01.790Z,1.33
2022-11-02T09:47:49.907Z,1.05
2022-11-02T09:52:36.028Z,1.77
2022-11-02T09:57:42.587Z,1.13
2022-11-02T10:03:00.055Z,1.30
2022-11-02T10:08:40.015Z,1.50
2022-11-02T10:13:54.176Z,2.10
2022-11-02T10:18:58.428Z,1.35
2022-11-02T10:24:10.604Z,1.40
2022-11-02T10:29:44.720Z,1.52
2022-11-02T10:34:58.543Z,1.58
2022-11-02T10:40:46.665Z,1.50
2022-11-02T10:46:05.835Z,1.85
2022-11-02T10:51:15.704Z,1.40
2022-11-02T10:56:20.253Z,1.33
2022-11-02T11:01:22.107Z,1.65
2022-11-02T11:06:26.881Z,1.80
2022-11-02T11:11:39.602Z,1.77
2022-11-02T11:16:46.452Z,1.80
2022-11-02T11:21:52.098Z,1.67
2022-11-02T11:27:12.351Z,2.00
2022-11-02T11:37:21.673Z,1.45
2022-11-02T11:42:27.361Z,1.67
2022-11-02T11:47:38.500Z,1.55
2022-11-02T11:52:40.550Z,1.30
2022-11-02T11:57:43.816Z,1.88
2022-11-02T12:03:03.042Z,1.48
2022-11-02T12:08:31.330Z,1.60
2022-11-02T12:13:50.581Z,1.88
2022-11-02T12:19:16.951Z,1.53
2022-11-02T12:24:34.020Z,2.08
2022-11-02T12:29:45.977Z,2.33
2022-11-02T12:35:28.252Z,1.50
2022-11-02T12:41:00.187Z,1.73
2022-11-02T12:46:43.368Z,2.03
2022-11-02T12:52:25.137Z,1.58
2022-11-02T12:57:31.829Z,2.65
2022-11-02T13:02:47.942Z,1.58
2022-11-02T13:08:12.402Z,1.77
2022-11-02T13:13:28.020Z,1.90
2022-11-02T13:19:00.669Z,1.50
2022-11-02T13:24:04.723Z,2.25
2022-11-02T13:29:53.027Z,3.10
2022-11-02T13:34:55.735Z,4.25
2022-11-02T13:40:02.063Z,3.67
2022-11-02T13:45:35.855Z,4.28
2022-11-02T13:50:45.377Z,3.47
2022-11-02T13:55:55.991Z,3.22
2022-11-02T14:01:03.937Z,2.88
2022-11-02T14:06:14.626Z,2.63
2022-11-02T14:11:16.253Z,2.10
2022-11-02T14:16:42.947Z,2.25
2022-11-02T14:22:13.175Z,2.08
2022-11-02T14:27:16.611Z,2.47
2022-11-02T14:32:28.311Z,2.40
2022-11-02T14:37:57.991Z,6.70
2022-11-02T14:42:59.702Z,2.97
2022-11-02T14:48:05.696Z,3.53
2022-11-02T14:53:15.239Z,3.33
2022-11-02T14:58:26.253Z,3.05
2022-11-02T15:03:28.867Z,3.13
2022-11-02T15:08:34.766Z,2.50
2022-11-02T15:13:47.602Z,2.55
2022-11-02T15:18:49.343Z,2.78
2022-11-02T15:23:55.150Z,2.55
2022-11-02T15:29:01.328Z,2.33
2022-11-02T15:34:13.540Z,1.60
2022-11-02T15:39:18.245Z,2.55
2022-11-02T15:44:55.517Z,4.22
2022-11-02T15:50:35.200Z,2.42
2022-11-02T15:56:05.130Z,3.03
2022-11-02T16:01:26.706Z,1.90
2022-11-02T16:06:43.086Z,2.17
2022-11-02T16:12:03.119Z,2.57
2022-11-02T16:17:05.465Z,2.00
2022-11-02T16:22:09.322Z,2.55
2022-11-02T16:27:14.063Z,2.15
2022-11-02T16:32:16.148Z,3.30
2022-11-02T16:37:19.700Z,2.10
2022-11-02T16:42:25.571Z,2.03
2022-11-02T16:47:41.526Z,2.28
2022-11-02T16:52:54.266Z,2.05
2022-11-02T16:58:02.805Z,2.30
2022-11-02T17:03:11.200Z,2.17
2022-11-02T17:08:30.033Z,2.05
2022-11-02T17:13:35.718Z,2.67
2022-11-02T17:18:38.311Z,2.40
2022-11-02T17:23:43.292Z,2.53
2022-11-02T17:28:47.014Z,2.63
2022-11-02T17:33:49.713Z,2.85
2022-11-02T17:38:51.980Z,2.67
2022-11-02T17:44:16.920Z,2.47
2022-11-02T17:49:20.827Z,2.25
2022-11-02T17:54:26.675Z,3.67
2022-11-02T17:59:29.312Z,2.20
2022-11-02T18:04:31.194Z,3.03
2022-11-02T18:09:33.044Z,2.95
2022-11-02T18:14:37.325Z,2.40
2022-11-02T18:19:39.858Z,2.35
2022-11-02T18:24:43.669Z,3.40
2022-11-02T18:35:10.085Z,2.35
2022-11-02T18:40:19.423Z,2.63
2022-11-02T18:45:21.931Z,2.35
2022-11-02T18:50:24.467Z,3.20
2022-11-02T18:55:27.560Z,2.35
2022-11-02T19:00:29.393Z,2.00
2022-11-02T19:05:53.849Z,2.63
2022-11-02T19:10:58.589Z,3.13
2022-11-02T19:16:00.635Z,2.83
2022-11-02T19:21:02.365Z,2.55
2022-11-02T19:26:04.902Z,2.38
2022-11-02T19:31:08.410Z,2.92
2022-11-02T19:36:14.681Z,3.13
2022-11-02T19:41:17.596Z,2.53
2022-11-02T19:46:21.378Z,3.13
2022-11-02T19:51:28.507Z,2.67
2022-11-02T19:56:32.979Z,2.72
2022-11-02T20:02:06.953Z,2.10
2022-11-02T20:07:08.611Z,2.22
2022-11-02T20:12:10.274Z,2.58
2022-11-02T20:17:30.269Z,2.40
2022-11-02T20:22:35.582Z,2.78
2022-11-02T20:27:41.158Z,2.33
2022-11-02T20:32:43.652Z,2.90
2022-11-02T20:37:45.565Z,2.50
2022-11-02T20:42:49.642Z,2.60
2022-11-02T20:47:52.054Z,2.25
2022-11-02T20:52:55.372Z,3.08
2022-11-02T20:58:06.507Z,2.75
2022-11-02T21:03:08.981Z,2.63
2022-11-02T21:08:31.954Z,2.17
2022-11-02T21:14:01.164Z,2.20
2022-11-02T21:24:52.178Z,2.83
2022-11-02T21:29:57.326Z,2.33
2022-11-02T21:35:02.913Z,3.08
2022-11-02T21:40:08.366Z,2.70
2022-11-02T21:45:17.692Z,3.33
2022-11-02T21:50:19.757Z,3.20
2022-11-02T21:55:21.536Z,3.25
2022-11-02T22:00:43.347Z,2.90
2022-11-02T22:05:55.244Z,3.55
2022-11-02T22:10:57.618Z,2.90
2022-11-02T22:16:07.692Z,2.67
2022-11-02T22:21:10.301Z,2.78
2022-11-02T22:26:15.467Z,2.25
2022-11-02T22:31:23.026Z,2.45
2022-11-02T22:36:27.001Z,1.80
2022-11-02T22:41:38.014Z,3.13
2022-11-02T22:46:44.683Z,2.63
2022-11-02T22:51:48.952Z,2.47
2022-11-02T22:56:50.727Z,3.28
2022-11-02T23:01:52.446Z,2.92
2022-11-02T23:06:54.210Z,2.47
2022-11-02T23:11:55.871Z,2.60
2022-11-02T23:16:58.712Z,2.20
2022-11-02T23:22:21.233Z,2.33
2022-11-02T23:27:23.410Z,1.95
2022-11-02T23:32:27.866Z,2.35
2022-11-02T23:37:30.208Z,3.20
2022-11-02T23:42:32.205Z,2.58
2022-11-02T23:47:52.401Z,3.28
2022-11-02T23:58:14.687Z,2.53
